sensor_id;sensor_type;location;lat;lon;timestamp;temperature;humidity
11491;DHT22;5802;52.832;4.758;2022-12-07T00:02:26;21.60;47.40
11491;DHT22;5802;52.832;4.758;2022-12-07T00:04:52;21.60;47.40
11491;DHT22;5802;52.832;4.758;2022-12-07T00:07:19;21.60;47.30
11491;DHT22;5802;52.832;4.758;2022-12-07T00:09:46;21.50;47.30
11491;DHT22;5802;52.832;4.758;2022-12-07T00:12:14;21.50;47.20
11491;DHT22;5802;52.832;4.758;2022-12-07T00:14:40;21.50;47.20
11491;DHT22;5802;52.832;4.758;2022-12-07T00:17:07;21.50;47.20
11491;DHT22;5802;52.832;4.758;2022-12-07T00:19:34;21.50;47.20
11491;DHT22;5802;52.832;4.758;2022-12-07T00:22:00;21.60;47.20
11491;DHT22;5802;52.832;4.758;2022-12-07T00:24:27;21.60;47.20
11491;DHT22;5802;52.832;4.758;2022-12-07T00:26:54;21.60;47.20
11491;DHT22;5802;52.832;4.758;2022-12-07T00:29:22;21.50;47.10
11491;DHT22;5802;52.832;4.758;2022-12-07T00:31:49;21.50;47.10
11491;DHT22;5802;52.832;4.758;2022-12-07T00:34:18;21.50;47.10
11491;DHT22;5802;52.832;4.758;2022-12-07T00:36:45;21.50;47.10
11491;DHT22;5802;52.832;4.758;2022-12-07T00:39:12;21.50;47.10
11491;DHT22;5802;52.832;4.758;2022-12-07T00:41:39;21.50;47.10
11491;DHT22;5802;52.832;4.758;2022-12-07T00:44:06;21.50;47.10
11491;DHT22;5802;52.832;4.758;2022-12-07T00:46:34;21.50;47.10
11491;DHT22;5802;52.832;4.758;2022-12-07T00:49:00;21.50;47.10
11491;DHT22;5802;52.832;4.758;2022-12-07T00:51:27;21.50;47.00
11491;DHT22;5802;52.832;4.758;2022-12-07T00:53:54;21.50;47.10
11491;DHT22;5802;52.832;4.758;2022-12-07T00:56:22;21.50;47.00
11491;DHT22;5802;52.832;4.758;2022-12-07T00:58:51;21.50;47.00
11491;DHT22;5802;52.832;4.758;2022-12-07T01:01:18;21.50;47.00
11491;DHT22;5802;52.832;4.758;2022-12-07T01:03:46;21.50;47.00
11491;DHT22;5802;52.832;4.758;2022-12-07T01:06:14;21.50;47.10
11491;DHT22;5802;52.832;4.758;2022-12-07T01:08:42;21.50;47.00
11491;DHT22;5802;52.832;4.758;2022-12-07T01:11:11;21.50;47.00
11491;DHT22;5802;52.832;4.758;2022-12-07T01:13:38;21.50;47.00
11491;DHT22;5802;52.832;4.758;2022-12-07T01:16:07;21.50;47.00
11491;DHT22;5802;52.832;4.758;2022-12-07T01:18:35;21.50;46.90
11491;DHT22;5802;52.832;4.758;2022-12-07T01:21:05;21.50;46.90
11491;DHT22;5802;52.832;4.758;2022-12-07T01:23:33;21.50;47.00
11491;DHT22;5802;52.832;4.758;2022-12-07T01:26:05;21.50;46.90
11491;DHT22;5802;52.832;4.758;2022-12-07T01:28:33;21.50;46.90
11491;DHT22;5802;52.832;4.758;2022-12-07T01:31:01;21.50;46.90
11491;DHT22;5802;52.832;4.758;2022-12-07T01:33:31;21.50;46.90
11491;DHT22;5802;52.832;4.758;2022-12-07T01:36:03;21.50;46.90
11491;DHT22;5802;52.832;4.758;2022-12-07T01:38:30;21.50;46.90
11491;DHT22;5802;52.832;4.758;2022-12-07T01:41:00;21.50;46.90
11491;DHT22;5802;52.832;4.758;2022-12-07T01:43:29;21.50;46.90
11491;DHT22;5802;52.832;4.758;2022-12-07T01:45:56;21.50;46.90
11491;DHT22;5802;52.832;4.758;2022-12-07T01:48:26;21.50;47.00
11491;DHT22;5802;52.832;4.758;2022-12-07T01:50:55;21.50;46.90
11491;DHT22;5802;52.832;4.758;2022-12-07T01:53:25;21.50;46.90
11491;DHT22;5802;52.832;4.758;2022-12-07T01:55:53;21.50;46.80
11491;DHT22;5802;52.832;4.758;2022-12-07T01:58:20;21.50;46.80
11491;DHT22;5802;52.832;4.758;2022-12-07T02:00:47;21.50;46.80
11491;DHT22;5802;52.832;4.758;2022-12-07T02:03:18;21.50;46.80
11491;DHT22;5802;52.832;4.758;2022-12-07T02:05:46;21.50;46.80
11491;DHT22;5802;52.832;4.758;2022-12-07T02:08:14;21.50;46.80
11491;DHT22;5802;52.832;4.758;2022-12-07T02:10:43;21.50;46.80
11491;DHT22;5802;52.832;4.758;2022-12-07T02:13:13;21.50;46.80
11491;DHT22;5802;52.832;4.758;2022-12-07T02:15:47;21.50;46.70
11491;DHT22;5802;52.832;4.758;2022-12-07T02:18:23;21.50;46.70
11491;DHT22;5802;52.832;4.758;2022-12-07T02:20:57;21.50;46.70
11491;DHT22;5802;52.832;4.758;2022-12-07T02:23:41;21.50;46.70
11491;DHT22;5802;52.832;4.758;2022-12-07T02:29:23;21.50;46.70
11491;DHT22;5802;52.832;4.758;2022-12-07T02:31:56;21.40;46.70
11491;DHT22;5802;52.832;4.758;2022-12-07T02:34:32;21.40;46.70
11491;DHT22;5802;52.832;4.758;2022-12-07T02:37:04;21.40;46.60
11491;DHT22;5802;52.832;4.758;2022-12-07T02:39:40;21.40;46.60
11491;DHT22;5802;52.832;4.758;2022-12-07T02:42:14;21.50;46.70
11491;DHT22;5802;52.832;4.758;2022-12-07T02:44:44;21.40;46.70
11491;DHT22;5802;52.832;4.758;2022-12-07T02:47:14;21.40;46.60
11491;DHT22;5802;52.832;4.758;2022-12-07T02:49:42;21.40;46.60
11491;DHT22;5802;52.832;4.758;2022-12-07T02:52:09;21.40;46.60
11491;DHT22;5802;52.832;4.758;2022-12-07T02:54:36;21.50;46.60
11491;DHT22;5802;52.832;4.758;2022-12-07T02:57:12;21.40;46.60
11491;DHT22;5802;52.832;4.758;2022-12-07T02:59:52;21.40;46.60
11491;DHT22;5802;52.832;4.758;2022-12-07T03:02:25;21.40;46.60
11491;DHT22;5802;52.832;4.758;2022-12-07T03:05:03;21.40;46.60
11491;DHT22;5802;52.832;4.758;2022-12-07T03:07:36;21.40;46.60
11491;DHT22;5802;52.832;4.758;2022-12-07T03:10:12;21.40;46.50
11491;DHT22;5802;52.832;4.758;2022-12-07T03:12:44;21.40;46.50
11491;DHT22;5802;52.832;4.758;2022-12-07T03:15:18;21.40;46.50
11491;DHT22;5802;52.832;4.758;2022-12-07T03:17:47;21.40;46.50
11491;DHT22;5802;52.832;4.758;2022-12-07T03:20:18;21.40;46.60
11491;DHT22;5802;52.832;4.758;2022-12-07T03:22:47;21.40;46.40
11491;DHT22;5802;52.832;4.758;2022-12-07T03:25:15;21.40;46.40
11491;DHT22;5802;52.832;4.758;2022-12-07T03:27:45;21.40;46.40
11491;DHT22;5802;52.832;4.758;2022-12-07T03:30:21;21.40;46.40
11491;DHT22;5802;52.832;4.758;2022-12-07T03:32:50;21.40;46.40
11491;DHT22;5802;52.832;4.758;2022-12-07T03:35:22;21.40;46.40
11491;DHT22;5802;52.832;4.758;2022-12-07T03:37:54;21.40;46.40
11491;DHT22;5802;52.832;4.758;2022-12-07T03:40:26;21.40;46.40
11491;DHT22;5802;52.832;4.758;2022-12-07T03:42:55;21.40;46.40
11491;DHT22;5802;52.832;4.758;2022-12-07T03:45:32;21.50;46.40
11491;DHT22;5802;52.832;4.758;2022-12-07T03:48:07;21.40;46.40
11491;DHT22;5802;52.832;4.758;2022-12-07T03:50:41;21.40;46.30
11491;DHT22;5802;52.832;4.758;2022-12-07T03:53:11;21.40;46.30
11491;DHT22;5802;52.832;4.758;2022-12-07T03:55:43;21.50;46.40
11491;DHT22;5802;52.832;4.758;2022-12-07T03:58:13;21.40;46.30
11491;DHT22;5802;52.832;4.758;2022-12-07T04:00:43;21.40;46.30
11491;DHT22;5802;52.832;4.758;2022-12-07T04:03:11;21.40;46.30
11491;DHT22;5802;52.832;4.758;2022-12-07T04:05:38;21.40;46.30
11491;DHT22;5802;52.832;4.758;2022-12-07T04:08:05;21.40;46.30
11491;DHT22;5802;52.832;4.758;2022-12-07T04:10:32;21.40;46.30
11491;DHT22;5802;52.832;4.758;2022-12-07T04:12:59;21.40;46.30
11491;DHT22;5802;52.832;4.758;2022-12-07T04:15:25;21.40;46.30
11491;DHT22;5802;52.832;4.758;2022-12-07T04:17:53;21.40;46.30
11491;DHT22;5802;52.832;4.758;2022-12-07T04:20:21;21.40;46.30
11491;DHT22;5802;52.832;4.758;2022-12-07T04:22:48;21.40;46.20
11491;DHT22;5802;52.832;4.758;2022-12-07T04:25:14;21.40;46.20
11491;DHT22;5802;52.832;4.758;2022-12-07T04:27:41;21.40;46.20
11491;DHT22;5802;52.832;4.758;2022-12-07T04:30:10;21.40;46.30
11491;DHT22;5802;52.832;4.758;2022-12-07T04:32:37;21.40;46.20
11491;DHT22;5802;52.832;4.758;2022-12-07T04:35:05;21.40;46.30
11491;DHT22;5802;52.832;4.758;2022-12-07T04:37:32;21.40;46.20
11491;DHT22;5802;52.832;4.758;2022-12-07T04:39:59;21.40;46.20
11491;DHT22;5802;52.832;4.758;2022-12-07T04:42:25;21.40;46.20
11491;DHT22;5802;52.832;4.758;2022-12-07T04:44:52;21.40;46.20
11491;DHT22;5802;52.832;4.758;2022-12-07T04:47:19;21.40;46.10
11491;DHT22;5802;52.832;4.758;2022-12-07T04:49:45;21.40;46.10
11491;DHT22;5802;52.832;4.758;2022-12-07T04:52:13;21.40;46.10
11491;DHT22;5802;52.832;4.758;2022-12-07T04:54:40;21.40;46.10
11491;DHT22;5802;52.832;4.758;2022-12-07T04:57:07;21.40;46.10
11491;DHT22;5802;52.832;4.758;2022-12-07T04:59:33;21.40;46.10
11491;DHT22;5802;52.832;4.758;2022-12-07T05:02:00;21.40;46.10
11491;DHT22;5802;52.832;4.758;2022-12-07T05:04:27;21.40;46.10
11491;DHT22;5802;52.832;4.758;2022-12-07T05:06:53;21.40;46.10
11491;DHT22;5802;52.832;4.758;2022-12-07T05:09:21;21.40;46.00
11491;DHT22;5802;52.832;4.758;2022-12-07T05:11:48;21.40;46.10
11491;DHT22;5802;52.832;4.758;2022-12-07T05:14:16;21.40;46.00
11491;DHT22;5802;52.832;4.758;2022-12-07T05:16:44;21.40;46.10
11491;DHT22;5802;52.832;4.758;2022-12-07T05:19:12;21.40;46.10
11491;DHT22;5802;52.832;4.758;2022-12-07T05:21:38;21.40;46.00
11491;DHT22;5802;52.832;4.758;2022-12-07T05:24:07;21.40;46.00
11491;DHT22;5802;52.832;4.758;2022-12-07T05:26:35;21.40;46.00
11491;DHT22;5802;52.832;4.758;2022-12-07T05:29:02;21.40;46.10
11491;DHT22;5802;52.832;4.758;2022-12-07T05:31:29;21.40;46.00
11491;DHT22;5802;52.832;4.758;2022-12-07T05:33:55;21.40;46.00
11491;DHT22;5802;52.832;4.758;2022-12-07T05:36:22;21.40;46.00
11491;DHT22;5802;52.832;4.758;2022-12-07T05:38:49;21.40;46.00
11491;DHT22;5802;52.832;4.758;2022-12-07T05:41:17;21.40;46.00
11491;DHT22;5802;52.832;4.758;2022-12-07T05:44:04;21.40;46.00
11491;DHT22;5802;52.832;4.758;2022-12-07T05:46:31;21.40;46.00
11491;DHT22;5802;52.832;4.758;2022-12-07T05:48:58;21.40;46.00
11491;DHT22;5802;52.832;4.758;2022-12-07T05:51:25;21.40;46.00
11491;DHT22;5802;52.832;4.758;2022-12-07T05:53:51;21.40;46.00
11491;DHT22;5802;52.832;4.758;2022-12-07T05:56:18;21.40;46.00
11491;DHT22;5802;52.832;4.758;2022-12-07T05:58:44;21.40;46.00
11491;DHT22;5802;52.832;4.758;2022-12-07T06:01:30;21.40;46.00
11491;DHT22;5802;52.832;4.758;2022-12-07T06:03:57;21.40;46.00
11491;DHT22;5802;52.832;4.758;2022-12-07T06:06:23;21.40;46.00
11491;DHT22;5802;52.832;4.758;2022-12-07T06:08:50;21.40;45.90
11491;DHT22;5802;52.832;4.758;2022-12-07T06:11:17;21.40;46.00
11491;DHT22;5802;52.832;4.758;2022-12-07T06:14:01;21.40;46.00
11491;DHT22;5802;52.832;4.758;2022-12-07T06:16:29;21.40;46.00
11491;DHT22;5802;52.832;4.758;2022-12-07T06:18:56;21.40;46.00
11491;DHT22;5802;52.832;4.758;2022-12-07T06:21:23;21.40;46.00
11491;DHT22;5802;52.832;4.758;2022-12-07T06:23:51;21.40;46.00
11491;DHT22;5802;52.832;4.758;2022-12-07T06:26:17;21.40;46.00
11491;DHT22;5802;52.832;4.758;2022-12-07T06:28:44;21.40;45.90
11491;DHT22;5802;52.832;4.758;2022-12-07T06:31:11;21.40;45.90
11491;DHT22;5802;52.832;4.758;2022-12-07T06:33:39;21.40;45.90
11491;DHT22;5802;52.832;4.758;2022-12-07T06:36:06;21.40;45.90
11491;DHT22;5802;52.832;4.758;2022-12-07T06:38:33;21.40;45.90
11491;DHT22;5802;52.832;4.758;2022-12-07T06:40:59;21.40;45.80
11491;DHT22;5802;52.832;4.758;2022-12-07T06:43:26;21.40;46.50
11491;DHT22;5802;52.832;4.758;2022-12-07T06:45:53;21.30;45.80
11491;DHT22;5802;52.832;4.758;2022-12-07T06:48:20;21.40;45.80
11491;DHT22;5802;52.832;4.758;2022-12-07T06:50:48;21.40;45.80
11491;DHT22;5802;52.832;4.758;2022-12-07T06:53:15;21.40;45.80
11491;DHT22;5802;52.832;4.758;2022-12-07T06:55:41;21.40;45.80
11491;DHT22;5802;52.832;4.758;2022-12-07T06:58:08;21.40;45.80
11491;DHT22;5802;52.832;4.758;2022-12-07T07:00:34;21.40;45.80
11491;DHT22;5802;52.832;4.758;2022-12-07T07:03:01;21.40;45.80
11491;DHT22;5802;52.832;4.758;2022-12-07T07:05:28;21.30;45.80
11491;DHT22;5802;52.832;4.758;2022-12-07T07:07:56;21.40;45.80
11491;DHT22;5802;52.832;4.758;2022-12-07T07:10:22;21.30;45.80
11491;DHT22;5802;52.832;4.758;2022-12-07T07:12:49;21.40;45.80
11491;DHT22;5802;52.832;4.758;2022-12-07T07:15:16;21.30;45.80
11491;DHT22;5802;52.832;4.758;2022-12-07T07:17:43;21.30;45.80
11491;DHT22;5802;52.832;4.758;2022-12-07T07:20:11;21.40;45.80
11491;DHT22;5802;52.832;4.758;2022-12-07T07:22:37;21.40;45.80
11491;DHT22;5802;52.832;4.758;2022-12-07T07:25:06;21.30;45.80
11491;DHT22;5802;52.832;4.758;2022-12-07T07:27:33;21.30;45.70
11491;DHT22;5802;52.832;4.758;2022-12-07T07:29:59;21.30;45.70
11491;DHT22;5802;52.832;4.758;2022-12-07T07:32:26;21.30;45.80
11491;DHT22;5802;52.832;4.758;2022-12-07T07:34:53;21.40;45.80
11491;DHT22;5802;52.832;4.758;2022-12-07T07:37:20;21.40;45.80
11491;DHT22;5802;52.832;4.758;2022-12-07T07:39:46;21.30;45.80
11491;DHT22;5802;52.832;4.758;2022-12-07T07:42:15;21.30;45.80
11491;DHT22;5802;52.832;4.758;2022-12-07T07:44:41;21.30;45.80
11491;DHT22;5802;52.832;4.758;2022-12-07T07:47:08;21.30;45.80
11491;DHT22;5802;52.832;4.758;2022-12-07T07:49:35;21.30;45.80
11491;DHT22;5802;52.832;4.758;2022-12-07T07:52:02;21.30;45.80
11491;DHT22;5802;52.832;4.758;2022-12-07T07:54:29;21.30;45.80
11491;DHT22;5802;52.832;4.758;2022-12-07T07:56:55;21.30;45.90
11491;DHT22;5802;52.832;4.758;2022-12-07T07:59:23;21.40;45.90
11491;DHT22;5802;52.832;4.758;2022-12-07T08:01:51;21.40;46.00
11491;DHT22;5802;52.832;4.758;2022-12-07T08:04:17;21.40;46.00
11491;DHT22;5802;52.832;4.758;2022-12-07T08:06:44;21.40;46.00
11491;DHT22;5802;52.832;4.758;2022-12-07T08:09:12;21.40;46.10
11491;DHT22;5802;52.832;4.758;2022-12-07T08:11:38;21.40;46.00
11491;DHT22;5802;52.832;4.758;2022-12-07T08:14:05;21.40;46.10
11491;DHT22;5802;52.832;4.758;2022-12-07T08:16:33;21.40;46.10
11491;DHT22;5802;52.832;4.758;2022-12-07T08:19:00;21.40;46.20
11491;DHT22;5802;52.832;4.758;2022-12-07T08:21:27;21.40;46.20
11491;DHT22;5802;52.832;4.758;2022-12-07T08:23:54;21.40;46.20
11491;DHT22;5802;52.832;4.758;2022-12-07T08:26:20;21.40;46.90
11491;DHT22;5802;52.832;4.758;2022-12-07T08:28:47;21.40;46.40
11491;DHT22;5802;52.832;4.758;2022-12-07T08:31:17;21.40;46.40
11491;DHT22;5802;52.832;4.758;2022-12-07T08:33:46;21.40;46.40
11491;DHT22;5802;52.832;4.758;2022-12-07T08:36:13;21.40;46.40
11491;DHT22;5802;52.832;4.758;2022-12-07T08:38:40;21.40;46.40
11491;DHT22;5802;52.832;4.758;2022-12-07T08:41:08;21.40;46.40
11491;DHT22;5802;52.832;4.758;2022-12-07T08:43:35;21.40;46.40
11491;DHT22;5802;52.832;4.758;2022-12-07T08:46:06;21.40;46.50
11491;DHT22;5802;52.832;4.758;2022-12-07T08:48:37;21.40;46.50
11491;DHT22;5802;52.832;4.758;2022-12-07T08:51:06;21.40;46.50
11491;DHT22;5802;52.832;4.758;2022-12-07T08:53:33;21.40;46.60
11491;DHT22;5802;52.832;4.758;2022-12-07T08:56:01;21.40;46.70
11491;DHT22;5802;52.832;4.758;2022-12-07T08:58:28;21.40;46.70
11491;DHT22;5802;52.832;4.758;2022-12-07T09:00:54;21.40;46.80
11491;DHT22;5802;52.832;4.758;2022-12-07T09:03:21;21.50;46.90
11491;DHT22;5802;52.832;4.758;2022-12-07T09:05:48;21.50;46.90
11491;DHT22;5802;52.832;4.758;2022-12-07T09:08:17;21.50;46.90
11491;DHT22;5802;52.832;4.758;2022-12-07T09:10:44;21.50;46.90
11491;DHT22;5802;52.832;4.758;2022-12-07T09:13:11;21.50;47.00
11491;DHT22;5802;52.832;4.758;2022-12-07T09:15:38;21.50;46.90
11491;DHT22;5802;52.832;4.758;2022-12-07T09:18:05;21.50;46.90
11491;DHT22;5802;52.832;4.758;2022-12-07T09:20:31;21.50;46.90
11491;DHT22;5802;52.832;4.758;2022-12-07T09:22:58;21.50;46.90
11491;DHT22;5802;52.832;4.758;2022-12-07T09:25:26;21.50;46.90
11491;DHT22;5802;52.832;4.758;2022-12-07T09:27:57;21.50;46.90
11491;DHT22;5802;52.832;4.758;2022-12-07T09:30:23;21.50;47.10
11491;DHT22;5802;52.832;4.758;2022-12-07T09:32:52;21.50;47.10
11491;DHT22;5802;52.832;4.758;2022-12-07T09:35:19;21.60;47.20
11491;DHT22;5802;52.832;4.758;2022-12-07T09:37:45;21.60;47.20
11491;DHT22;5802;52.832;4.758;2022-12-07T09:40:13;21.60;47.20
11491;DHT22;5802;52.832;4.758;2022-12-07T09:42:45;21.60;47.20
11491;DHT22;5802;52.832;4.758;2022-12-07T09:45:15;21.60;47.10
11491;DHT22;5802;52.832;4.758;2022-12-07T09:47:43;21.60;47.10
11491;DHT22;5802;52.832;4.758;2022-12-07T09:50:14;21.60;47.00
11491;DHT22;5802;52.832;4.758;2022-12-07T09:52:43;21.70;47.00
11491;DHT22;5802;52.832;4.758;2022-12-07T09:55:13;21.70;47.00
11491;DHT22;5802;52.832;4.758;2022-12-07T09:57:42;21.70;47.20
11491;DHT22;5802;52.832;4.758;2022-12-07T10:00:13;21.70;47.10
11491;DHT22;5802;52.832;4.758;2022-12-07T10:02:42;21.70;46.90
11491;DHT22;5802;52.832;4.758;2022-12-07T10:05:13;21.70;46.90
11491;DHT22;5802;52.832;4.758;2022-12-07T10:07:40;21.70;46.90
11491;DHT22;5802;52.832;4.758;2022-12-07T10:10:13;21.70;46.90
11491;DHT22;5802;52.832;4.758;2022-12-07T10:12:55;21.70;47.00
11491;DHT22;5802;52.832;4.758;2022-12-07T10:15:23;21.70;46.90
11491;DHT22;5802;52.832;4.758;2022-12-07T10:17:51;21.80;46.90
11491;DHT22;5802;52.832;4.758;2022-12-07T10:20:22;21.80;46.90
11491;DHT22;5802;52.832;4.758;2022-12-07T10:23:01;21.80;46.90
11491;DHT22;5802;52.832;4.758;2022-12-07T10:25:31;21.80;46.90
11491;DHT22;5802;52.832;4.758;2022-12-07T10:30:49;21.80;47.00
11491;DHT22;5802;52.832;4.758;2022-12-07T10:33:29;21.80;46.90
11491;DHT22;5802;52.832;4.758;2022-12-07T10:35:56;21.80;46.80
11491;DHT22;5802;52.832;4.758;2022-12-07T10:38:26;21.90;46.80
11491;DHT22;5802;52.832;4.758;2022-12-07T10:41:06;21.90;46.80
11491;DHT22;5802;52.832;4.758;2022-12-07T10:43:34;21.90;46.90
11491;DHT22;5802;52.832;4.758;2022-12-07T10:46:24;21.90;46.80
11491;DHT22;5802;52.832;4.758;2022-12-07T10:48:59;21.90;46.80
11491;DHT22;5802;52.832;4.758;2022-12-07T10:51:37;21.90;46.80
11491;DHT22;5802;52.832;4.758;2022-12-07T10:54:11;21.90;46.80
11491;DHT22;5802;52.832;4.758;2022-12-07T10:57:04;21.90;46.70
11491;DHT22;5802;52.832;4.758;2022-12-07T10:59:53;21.90;47.30
11491;DHT22;5802;52.832;4.758;2022-12-07T11:02:36;22.00;46.70
11491;DHT22;5802;52.832;4.758;2022-12-07T11:05:14;22.00;46.70
11491;DHT22;5802;52.832;4.758;2022-12-07T11:07:50;22.00;46.60
11491;DHT22;5802;52.832;4.758;2022-12-07T11:10:22;22.00;46.40
11491;DHT22;5802;52.832;4.758;2022-12-07T11:13:02;22.10;46.40
11491;DHT22;5802;52.832;4.758;2022-12-07T11:15:41;22.10;46.30
11491;DHT22;5802;52.832;4.758;2022-12-07T11:18:14;22.10;46.30
11491;DHT22;5802;52.832;4.758;2022-12-07T11:20:45;22.10;46.20
11491;DHT22;5802;52.832;4.758;2022-12-07T11:23:21;22.10;46.10
11491;DHT22;5802;52.832;4.758;2022-12-07T11:25:57;22.10;46.00
11491;DHT22;5802;52.832;4.758;2022-12-07T11:28:40;22.10;45.80
11491;DHT22;5802;52.832;4.758;2022-12-07T11:31:20;22.10;45.70
11491;DHT22;5802;52.832;4.758;2022-12-07T11:33:53;22.10;45.70
11491;DHT22;5802;52.832;4.758;2022-12-07T11:36:37;22.10;45.70
11491;DHT22;5802;52.832;4.758;2022-12-07T11:39:14;22.10;45.70
11491;DHT22;5802;52.832;4.758;2022-12-07T11:41:43;22.10;45.70
11491;DHT22;5802;52.832;4.758;2022-12-07T11:44:21;22.10;45.70
11491;DHT22;5802;52.832;4.758;2022-12-07T11:46:55;22.10;45.60
11491;DHT22;5802;52.832;4.758;2022-12-07T11:49:30;22.10;45.70
11491;DHT22;5802;52.832;4.758;2022-12-07T11:52:02;22.10;45.70
11491;DHT22;5802;52.832;4.758;2022-12-07T11:54:34;22.10;45.60
11491;DHT22;5802;52.832;4.758;2022-12-07T11:57:04;22.10;45.60
11491;DHT22;5802;52.832;4.758;2022-12-07T11:59:38;22.10;45.60
11491;DHT22;5802;52.832;4.758;2022-12-07T12:02:15;22.10;45.50
11491;DHT22;5802;52.832;4.758;2022-12-07T12:04:51;22.10;45.50
11491;DHT22;5802;52.832;4.758;2022-12-07T12:07:24;22.10;45.40
11491;DHT22;5802;52.832;4.758;2022-12-07T12:09:54;22.10;45.70
11491;DHT22;5802;52.832;4.758;2022-12-07T12:12:36;22.10;45.90
11491;DHT22;5802;52.832;4.758;2022-12-07T12:15:18;22.20;45.90
11491;DHT22;5802;52.832;4.758;2022-12-07T12:18:09;22.20;45.50
11491;DHT22;5802;52.832;4.758;2022-12-07T12:20:45;22.20;45.20
11491;DHT22;5802;52.832;4.758;2022-12-07T12:23:16;22.20;45.00
11491;DHT22;5802;52.832;4.758;2022-12-07T12:25:45;22.20;44.90
11491;DHT22;5802;52.832;4.758;2022-12-07T12:28:24;22.20;44.80
11491;DHT22;5802;52.832;4.758;2022-12-07T12:31:07;22.20;44.70
11491;DHT22;5802;52.832;4.758;2022-12-07T12:33:37;22.20;44.50
11491;DHT22;5802;52.832;4.758;2022-12-07T12:36:26;22.20;44.50
11491;DHT22;5802;52.832;4.758;2022-12-07T12:39:09;22.20;44.40
11491;DHT22;5802;52.832;4.758;2022-12-07T12:41:56;22.20;44.30
11491;DHT22;5802;52.832;4.758;2022-12-07T12:47:56;22.20;44.20
11491;DHT22;5802;52.832;4.758;2022-12-07T12:50:29;22.20;44.40
11491;DHT22;5802;52.832;4.758;2022-12-07T12:53:16;22.20;44.50
11491;DHT22;5802;52.832;4.758;2022-12-07T12:58:47;22.20;44.80
11491;DHT22;5802;52.832;4.758;2022-12-07T13:01:44;22.20;44.80
11491;DHT22;5802;52.832;4.758;2022-12-07T13:04:37;22.20;44.90
11491;DHT22;5802;52.832;4.758;2022-12-07T13:07:11;22.20;45.20
11491;DHT22;5802;52.832;4.758;2022-12-07T13:09:42;22.20;45.10
11491;DHT22;5802;52.832;4.758;2022-12-07T13:12:13;22.20;45.10
11491;DHT22;5802;52.832;4.758;2022-12-07T13:14:56;22.20;45.20
11491;DHT22;5802;52.832;4.758;2022-12-07T13:17:55;22.20;45.20
11491;DHT22;5802;52.832;4.758;2022-12-07T13:20:45;22.20;45.90
11491;DHT22;5802;52.832;4.758;2022-12-07T13:23:14;22.10;45.20
11491;DHT22;5802;52.832;4.758;2022-12-07T13:25:56;22.10;45.30
11491;DHT22;5802;52.832;4.758;2022-12-07T13:28:33;22.10;45.20
11491;DHT22;5802;52.832;4.758;2022-12-07T13:31:19;22.10;45.30
11491;DHT22;5802;52.832;4.758;2022-12-07T13:33:47;22.10;45.30
11491;DHT22;5802;52.832;4.758;2022-12-07T13:36:19;22.10;45.30
11491;DHT22;5802;52.832;4.758;2022-12-07T13:39:16;22.10;45.30
11491;DHT22;5802;52.832;4.758;2022-12-07T13:41:44;22.10;45.40
11491;DHT22;5802;52.832;4.758;2022-12-07T13:44:13;22.10;45.40
11491;DHT22;5802;52.832;4.758;2022-12-07T13:46:49;22.10;45.40
11491;DHT22;5802;52.832;4.758;2022-12-07T13:49:19;22.10;45.50
11491;DHT22;5802;52.832;4.758;2022-12-07T13:51:46;22.10;45.40
11491;DHT22;5802;52.832;4.758;2022-12-07T13:54:15;22.20;45.40
11491;DHT22;5802;52.832;4.758;2022-12-07T13:56:42;22.10;45.30
11491;DHT22;5802;52.832;4.758;2022-12-07T13:59:13;22.10;45.30
11491;DHT22;5802;52.832;4.758;2022-12-07T14:01:40;22.10;45.30
11491;DHT22;5802;52.832;4.758;2022-12-07T14:04:28;22.10;45.20
11491;DHT22;5802;52.832;4.758;2022-12-07T14:06:56;22.10;45.30
11491;DHT22;5802;52.832;4.758;2022-12-07T14:09:25;22.10;45.30
11491;DHT22;5802;52.832;4.758;2022-12-07T14:11:54;22.10;45.30
11491;DHT22;5802;52.832;4.758;2022-12-07T14:14:22;22.10;45.30
11491;DHT22;5802;52.832;4.758;2022-12-07T14:17:01;22.10;45.30
11491;DHT22;5802;52.832;4.758;2022-12-07T14:19:49;22.10;45.30
11491;DHT22;5802;52.832;4.758;2022-12-07T14:22:23;22.10;45.30
11491;DHT22;5802;52.832;4.758;2022-12-07T14:25:13;22.10;45.30
11491;DHT22;5802;52.832;4.758;2022-12-07T14:27:48;22.10;45.30
11491;DHT22;5802;52.832;4.758;2022-12-07T14:30:17;22.10;45.30
11491;DHT22;5802;52.832;4.758;2022-12-07T14:32:44;22.00;45.20
11491;DHT22;5802;52.832;4.758;2022-12-07T14:35:15;22.00;45.20
11491;DHT22;5802;52.832;4.758;2022-12-07T14:37:46;22.10;45.20
11491;DHT22;5802;52.832;4.758;2022-12-07T14:40:17;22.00;45.20
11491;DHT22;5802;52.832;4.758;2022-12-07T14:42:44;22.00;45.20
11491;DHT22;5802;52.832;4.758;2022-12-07T14:45:16;22.00;45.20
11491;DHT22;5802;52.832;4.758;2022-12-07T14:47:45;22.00;45.20
11491;DHT22;5802;52.832;4.758;2022-12-07T14:50:13;22.00;45.30
11491;DHT22;5802;52.832;4.758;2022-12-07T14:52:42;22.00;45.30
11491;DHT22;5802;52.832;4.758;2022-12-07T14:55:16;22.00;45.30
11491;DHT22;5802;52.832;4.758;2022-12-07T14:57:44;22.00;45.40
11491;DHT22;5802;52.832;4.758;2022-12-07T15:00:16;22.00;45.40
11491;DHT22;5802;52.832;4.758;2022-12-07T15:02:43;22.00;45.40
11491;DHT22;5802;52.832;4.758;2022-12-07T15:05:10;22.00;45.50
11491;DHT22;5802;52.832;4.758;2022-12-07T15:07:37;22.00;45.50
11491;DHT22;5802;52.832;4.758;2022-12-07T15:10:05;22.00;45.90
11491;DHT22;5802;52.832;4.758;2022-12-07T15:12:33;22.00;46.10
11491;DHT22;5802;52.832;4.758;2022-12-07T15:15:00;21.90;46.00
11491;DHT22;5802;52.832;4.758;2022-12-07T15:17:27;22.00;46.20
11491;DHT22;5802;52.832;4.758;2022-12-07T15:19:53;22.00;46.10
11491;DHT22;5802;52.832;4.758;2022-12-07T15:22:20;22.00;46.10
11491;DHT22;5802;52.832;4.758;2022-12-07T15:24:47;22.00;46.20
11491;DHT22;5802;52.832;4.758;2022-12-07T15:27:14;22.00;46.10
11491;DHT22;5802;52.832;4.758;2022-12-07T15:29:42;22.00;46.10
11491;DHT22;5802;52.832;4.758;2022-12-07T15:32:08;22.00;46.00
11491;DHT22;5802;52.832;4.758;2022-12-07T15:34:35;22.00;45.90
11491;DHT22;5802;52.832;4.758;2022-12-07T15:37:02;22.00;45.90
11491;DHT22;5802;52.832;4.758;2022-12-07T15:39:29;22.00;45.80
11491;DHT22;5802;52.832;4.758;2022-12-07T15:41:56;22.00;45.80
11491;DHT22;5802;52.832;4.758;2022-12-07T15:44:22;22.00;45.80
11491;DHT22;5802;52.832;4.758;2022-12-07T15:47:08;22.00;45.80
11491;DHT22;5802;52.832;4.758;2022-12-07T15:49:35;22.00;45.80
11491;DHT22;5802;52.832;4.758;2022-12-07T15:52:01;22.00;45.70
11491;DHT22;5802;52.832;4.758;2022-12-07T15:54:29;22.00;45.80
11491;DHT22;5802;52.832;4.758;2022-12-07T15:56:58;22.00;45.80
11491;DHT22;5802;52.832;4.758;2022-12-07T15:59:26;22.00;45.80
11491;DHT22;5802;52.832;4.758;2022-12-07T16:01:53;22.00;45.80
11491;DHT22;5802;52.832;4.758;2022-12-07T16:04:21;22.00;45.80
11491;DHT22;5802;52.832;4.758;2022-12-07T16:06:48;22.00;45.80
11491;DHT22;5802;52.832;4.758;2022-12-07T16:09:16;22.00;45.80
11491;DHT22;5802;52.832;4.758;2022-12-07T16:11:42;22.00;45.80
11491;DHT22;5802;52.832;4.758;2022-12-07T16:14:09;22.00;45.80
11491;DHT22;5802;52.832;4.758;2022-12-07T16:16:36;22.00;45.80
11491;DHT22;5802;52.832;4.758;2022-12-07T16:19:02;22.00;45.80